createdAt,value
2022-11-17T00:00:24.329Z,5.10
2022-11-17T00:03:28.861Z,5.20
2022-11-17T00:06:33.203Z,5.10
2022-11-17T00:09:37.471Z,5.10
2022-11-17T00:13:00.422Z,5.10
2022-11-17T00:16:05.000Z,5.00
2022-11-17T00:19:27.903Z,5.00
2022-11-17T00:22:32.920Z,4.90
2022-11-17T00:25:37.487Z,4.90
2022-11-17T00:28:41.697Z,4.90
2022-11-17T00:32:04.546Z,4.90
2022-11-17T00:35:08.740Z,4.90
2022-11-17T00:38:15.747Z,4.80
2022-11-17T00:41:20.225Z,4.80
2022-11-17T00:44:25.391Z,4.80
2022-11-17T00:47:29.853Z,4.80
2022-11-17T00:50:34.145Z,4.80
2022-11-17T00:53:38.433Z,4.80
2022-11-17T00:56:42.859Z,4.70
2022-11-17T00:59:47.153Z,4.70
2022-11-17T01:02:51.658Z,4.70
2022-11-17T01:05:56.016Z,4.60
2022-11-17T01:09:02.339Z,4.60
2022-11-17T01:12:06.681Z,4.50
2022-11-17T01:15:11.108Z,4.50
2022-11-17T01:18:15.521Z,4.40
2022-11-17T01:21:25.448Z,4.30
2022-11-17T01:24:29.845Z,4.30
2022-11-17T01:27:34.387Z,4.30
2022-11-17T01:30:38.750Z,4.30
2022-11-17T01:33:43.901Z,4.30
2022-11-17T01:37:06.724Z,4.20
2022-11-17T01:40:14.034Z,4.20
2022-11-17T01:43:37.935Z,4.20
2022-11-17T01:46:42.556Z,4.10
2022-11-17T01:49:48.527Z,4.10
2022-11-17T01:52:55.996Z,4.00
2022-11-17T01:56:04.618Z,4.10
2022-11-17T01:59:40.201Z,4.00
2022-11-17T02:02:45.926Z,4.10
2022-11-17T02:05:57.052Z,4.20
2022-11-17T02:09:03.931Z,4.20
2022-11-17T02:12:13.602Z,4.30
2022-11-17T02:15:18.117Z,4.40
2022-11-17T02:18:22.651Z,4.40
2022-11-17T02:21:40.297Z,4.40
2022-11-17T02:24:54.203Z,4.40
2022-11-17T02:28:19.242Z,4.40
2022-11-17T02:31:35.580Z,4.50
2022-11-17T02:35:02.017Z,4.50
2022-11-17T02:38:28.135Z,4.60
2022-11-17T02:41:57.998Z,4.80
2022-11-17T02:45:04.964Z,4.80
2022-11-17T02:48:16.110Z,4.70
2022-11-17T02:51:23.048Z,4.60
2022-11-17T02:54:30.580Z,4.70
2022-11-17T02:57:40.324Z,4.70
2022-11-17T03:01:23.558Z,4.60
2022-11-17T03:04:56.880Z,4.60
2022-11-17T03:08:08.914Z,4.80
2022-11-17T03:11:14.097Z,4.80
2022-11-17T03:14:40.241Z,4.90
2022-11-17T03:18:17.990Z,4.80
2022-11-17T03:21:52.512Z,4.70
2022-11-17T03:25:04.355Z,4.70
2022-11-17T03:28:10.578Z,4.70
2022-11-17T03:31:16.615Z,4.80
2022-11-17T03:34:24.352Z,4.70
2022-11-17T03:37:32.001Z,4.70
2022-11-17T03:40:40.913Z,4.80
2022-11-17T03:43:49.542Z,4.80
2022-11-17T03:46:55.941Z,4.70
2022-11-17T03:50:14.026Z,4.70
2022-11-17T03:53:18.518Z,4.70
2022-11-17T03:56:48.673Z,4.70
2022-11-17T04:00:15.068Z,4.60
2022-11-17T04:03:23.163Z,4.60
2022-11-17T04:06:27.802Z,4.50
2022-11-17T04:09:32.061Z,4.60
2022-11-17T04:12:54.863Z,4.60
2022-11-17T04:15:59.633Z,4.60
2022-11-17T04:19:04.290Z,4.50
2022-11-17T04:22:08.746Z,4.60
2022-11-17T04:25:32.965Z,4.50
2022-11-17T04:28:40.214Z,4.60
2022-11-17T04:31:44.400Z,4.60
2022-11-17T04:34:49.111Z,4.60
2022-11-17T04:37:53.449Z,4.60
2022-11-17T04:41:30.478Z,4.60
2022-11-17T04:44:34.604Z,4.60
2022-11-17T04:47:38.924Z,4.60
2022-11-17T04:50:43.244Z,4.60
2022-11-17T04:53:47.933Z,4.70
2022-11-17T04:56:54.211Z,4.70
2022-11-17T04:59:58.059Z,4.80
2022-11-17T05:03:02.595Z,4.80
2022-11-17T05:06:07.282Z,4.70
2022-11-17T05:09:16.447Z,4.60
2022-11-17T05:12:39.324Z,4.60
2022-11-17T05:16:02.187Z,4.60
2022-11-17T05:19:08.908Z,4.50
2022-11-17T05:22:35.216Z,4.50
2022-11-17T05:25:39.588Z,4.50
2022-11-17T05:28:43.873Z,4.50
2022-11-17T05:31:48.793Z,4.50
2022-11-17T05:34:53.329Z,4.40
2022-11-17T05:37:57.652Z,4.40
2022-11-17T05:41:02.479Z,4.40
2022-11-17T05:44:06.940Z,4.30
2022-11-17T05:47:10.993Z,4.30
2022-11-17T05:50:15.287Z,4.40
2022-11-17T05:53:20.505Z,4.40
2022-11-17T05:56:38.584Z,4.50
2022-11-17T05:59:46.846Z,4.40
2022-11-17T06:02:56.767Z,4.40
2022-11-17T06:06:01.109Z,4.50
2022-11-17T06:09:05.536Z,4.50
2022-11-17T06:12:11.965Z,4.40
2022-11-17T06:15:16.129Z,4.30
2022-11-17T06:18:26.772Z,4.30
2022-11-17T06:21:49.437Z,4.20
2022-11-17T06:24:57.147Z,4.20
2022-11-17T06:28:04.329Z,4.20
2022-11-17T06:31:08.738Z,4.20
2022-11-17T06:34:13.321Z,4.10
2022-11-17T06:37:17.819Z,4.10
2022-11-17T06:40:22.458Z,4.10
2022-11-17T06:43:27.118Z,4.10
2022-11-17T06:46:37.911Z,4.00
2022-11-17T06:49:42.285Z,4.00
2022-11-17T06:52:46.695Z,4.10
2022-11-17T06:56:01.361Z,4.00
2022-11-17T06:59:05.460Z,4.00
2022-11-17T07:02:10.220Z,4.10
2022-11-17T07:05:14.212Z,4.10
2022-11-17T07:08:22.109Z,4.20
2022-11-17T07:11:26.402Z,4.20
2022-11-17T07:14:31.249Z,4.30
2022-11-17T07:17:35.516Z,4.30
2022-11-17T07:20:39.975Z,4.30
2022-11-17T07:23:45.620Z,4.30
2022-11-17T07:26:50.151Z,4.40
2022-11-17T07:29:54.587Z,4.40
2022-11-17T07:33:00.722Z,4.40
2022-11-17T07:36:11.009Z,4.50
2022-11-17T07:39:21.007Z,4.60
2022-11-17T07:42:26.162Z,4.60
2022-11-17T07:45:32.219Z,4.60
2022-11-17T07:48:37.097Z,4.70
2022-11-17T07:51:41.413Z,4.70
2022-11-17T07:54:45.720Z,4.70
2022-11-17T07:58:00.975Z,4.80
2022-11-17T08:01:15.518Z,4.70
2022-11-17T08:04:20.155Z,4.80
2022-11-17T08:07:24.643Z,4.80
2022-11-17T08:10:32.271Z,4.90
2022-11-17T08:13:38.625Z,5.00
2022-11-17T08:16:43.298Z,5.10
2022-11-17T08:19:47.753Z,5.20
2022-11-17T08:22:53.286Z,5.30
2022-11-17T08:25:57.331Z,5.40
2022-11-17T08:29:01.916Z,5.40
2022-11-17T08:32:06.338Z,5.50
2022-11-17T08:35:10.872Z,5.60
2022-11-17T08:38:15.527Z,5.60
2022-11-17T08:41:19.904Z,5.70
2022-11-17T08:44:24.325Z,5.70
2022-11-17T08:47:28.504Z,5.80
2022-11-17T08:50:33.241Z,5.90
2022-11-17T08:53:37.561Z,5.90
2022-11-17T08:56:41.777Z,5.90
2022-11-17T08:59:46.016Z,5.90
2022-11-17T09:02:50.607Z,5.90
2022-11-17T09:05:55.093Z,6.00
2022-11-17T09:08:59.994Z,6.00
2022-11-17T09:12:04.500Z,6.00
2022-11-17T09:15:09.579Z,6.00
2022-11-17T09:18:14.206Z,6.00
2022-11-17T09:21:18.635Z,6.10
2022-11-17T09:24:24.007Z,6.00
2022-11-17T09:27:28.409Z,6.00
2022-11-17T09:30:32.710Z,6.00
2022-11-17T09:33:37.557Z,6.10
2022-11-17T09:36:42.195Z,6.10
2022-11-17T09:39:46.560Z,6.10
2022-11-17T09:42:51.321Z,6.10
2022-11-17T09:46:10.764Z,6.10
2022-11-17T09:49:19.995Z,6.10
2022-11-17T09:52:36.952Z,6.10
2022-11-17T09:55:45.374Z,6.10
2022-11-17T09:59:04.565Z,6.20
2022-11-17T10:02:10.693Z,6.20
2022-11-17T10:05:33.978Z,6.30
2022-11-17T10:08:42.440Z,6.30
2022-11-17T10:11:47.856Z,6.20
2022-11-17T10:14:54.002Z,6.30
2022-11-17T10:17:58.251Z,6.30
2022-11-17T10:21:03.475Z,6.30
2022-11-17T10:24:07.977Z,6.30
2022-11-17T10:27:25.644Z,6.30
2022-11-17T10:30:30.227Z,6.40
2022-11-17T10:33:40.931Z,6.50
2022-11-17T10:36:47.826Z,6.50
2022-11-17T10:40:09.178Z,6.50
2022-11-17T10:43:13.456Z,6.60
2022-11-17T10:46:17.824Z,6.60
2022-11-17T10:49:34.059Z,6.60
2022-11-17T10:52:38.384Z,6.60
2022-11-17T10:55:43.910Z,6.60
2022-11-17T10:59:14.628Z,6.60
2022-11-17T11:02:39.518Z,6.50
2022-11-17T11:06:22.622Z,6.50
2022-11-17T11:09:28.025Z,6.50
2022-11-17T11:12:32.295Z,6.40
2022-11-17T11:15:37.120Z,6.50
2022-11-17T11:18:41.462Z,6.50
2022-11-17T11:21:45.853Z,6.50
2022-11-17T11:24:54.267Z,6.50
2022-11-17T11:28:13.703Z,6.50
2022-11-17T11:31:49.152Z,6.50
2022-11-17T11:35:20.230Z,6.40
2022-11-17T11:38:35.713Z,6.40
2022-11-17T11:41:55.445Z,6.40
2022-11-17T11:45:24.214Z,6.30
2022-11-17T11:48:33.735Z,6.40
2022-11-17T11:51:39.504Z,6.40
2022-11-17T11:55:00.929Z,6.40
2022-11-17T11:58:23.443Z,6.50
2022-11-17T12:01:32.660Z,6.50
2022-11-17T12:04:49.855Z,6.70
2022-11-17T12:08:30.349Z,6.90
2022-11-17T12:11:56.655Z,6.80
2022-11-17T12:15:09.990Z,7.20
2022-11-17T12:18:31.230Z,7.00
2022-11-17T12:21:35.345Z,7.10
2022-11-17T12:24:42.164Z,8.20
2022-11-17T12:27:53.115Z,8.30
2022-11-17T12:31:10.056Z,7.80
2022-11-17T12:34:38.588Z,8.50
2022-11-17T12:37:42.534Z,9.00
2022-11-17T12:40:51.499Z,8.80
2022-11-17T12:44:34.597Z,9.10
2022-11-17T12:48:04.810Z,8.00
2022-11-17T12:51:30.412Z,8.90
2022-11-17T12:54:52.306Z,8.10
2022-11-17T12:58:26.259Z,7.30
2022-11-17T13:01:42.781Z,7.90
2022-11-17T13:05:18.234Z,8.30
2022-11-17T13:08:24.346Z,8.80
2022-11-17T13:11:29.638Z,8.80
2022-11-17T13:14:36.329Z,7.80
2022-11-17T13:17:42.894Z,7.30
2022-11-17T13:20:49.076Z,7.20
2022-11-17T13:23:53.827Z,7.00
2022-11-17T13:27:00.047Z,7.00
2022-11-17T13:30:16.011Z,7.00
2022-11-17T13:33:22.768Z,7.30
2022-11-17T13:36:27.287Z,8.00
2022-11-17T13:39:31.972Z,7.50
2022-11-17T13:42:36.709Z,7.60
2022-11-17T13:45:43.241Z,8.30
2022-11-17T13:48:49.583Z,8.00
2022-11-17T13:51:53.915Z,7.50
2022-11-17T13:54:58.364Z,7.50
2022-11-17T13:58:25.852Z,7.00
2022-11-17T14:01:33.022Z,6.80
2022-11-17T14:04:37.523Z,6.70
2022-11-17T14:07:43.480Z,6.60
2022-11-17T14:10:48.809Z,6.60
2022-11-17T14:13:58.802Z,6.60
2022-11-17T14:17:18.731Z,6.60
2022-11-17T14:20:26.121Z,6.50
2022-11-17T14:23:30.352Z,6.20
2022-11-17T14:26:34.854Z,6.10
2022-11-17T14:29:39.234Z,6.10
2022-11-17T14:32:44.039Z,6.00
2022-11-17T14:35:54.679Z,6.00
2022-11-17T14:39:01.058Z,5.90
2022-11-17T14:42:05.725Z,5.90
2022-11-17T14:45:15.368Z,5.90
2022-11-17T14:48:20.287Z,5.80
2022-11-17T14:51:25.575Z,5.70
2022-11-17T14:54:29.982Z,5.70
2022-11-17T14:57:34.232Z,5.60
2022-11-17T15:00:38.554Z,5.60
2022-11-17T15:03:43.312Z,5.50
2022-11-17T15:06:48.000Z,5.50
2022-11-17T15:09:52.516Z,5.40
2022-11-17T15:12:56.833Z,5.40
2022-11-17T15:16:05.025Z,5.30
2022-11-17T15:19:09.677Z,5.30
2022-11-17T15:22:14.340Z,5.20
2022-11-17T15:25:18.578Z,5.20
2022-11-17T15:28:24.159Z,5.10
2022-11-17T15:31:29.186Z,5.10
2022-11-17T15:34:34.238Z,5.00
2022-11-17T15:37:38.445Z,5.00
2022-11-17T15:40:42.997Z,5.10
2022-11-17T15:43:47.439Z,5.10
2022-11-17T15:46:51.850Z,5.00
2022-11-17T15:49:58.411Z,5.00
2022-11-17T15:53:04.409Z,5.10
2022-11-17T15:56:26.361Z,5.10
2022-11-17T15:59:30.759Z,5.10
2022-11-17T16:02:35.097Z,5.10
2022-11-17T16:05:39.661Z,5.10
2022-11-17T16:08:44.372Z,5.10
2022-11-17T16:11:48.311Z,5.10
2022-11-17T16:14:52.520Z,5.10
2022-11-17T16:17:57.013Z,5.00
2022-11-17T16:21:07.217Z,5.00
2022-11-17T16:24:12.065Z,5.00
2022-11-17T16:27:16.396Z,5.00
2022-11-17T16:30:20.758Z,4.90
2022-11-17T16:33:25.241Z,5.00
2022-11-17T16:36:36.128Z,5.00
2022-11-17T16:39:41.271Z,5.00
2022-11-17T16:42:45.680Z,5.00
2022-11-17T16:45:49.958Z,5.10
2022-11-17T16:48:55.262Z,5.00
2022-11-17T16:51:59.964Z,5.00
2022-11-17T16:55:05.492Z,5.00
2022-11-17T16:58:11.318Z,5.10
2022-11-17T17:01:16.237Z,5.10
2022-11-17T17:04:20.380Z,5.10
2022-11-17T17:07:24.974Z,5.10
2022-11-17T17:10:29.411Z,5.00
2022-11-17T17:13:34.917Z,5.10
2022-11-17T17:16:38.966Z,5.10
2022-11-17T17:19:43.462Z,5.10
2022-11-17T17:22:47.915Z,5.00
2022-11-17T17:26:08.094Z,5.00
2022-11-17T17:29:12.658Z,5.00
2022-11-17T17:32:16.966Z,5.00
2022-11-17T17:35:21.349Z,4.90
2022-11-17T17:38:27.668Z,5.00
2022-11-17T17:41:37.684Z,4.90
2022-11-17T17:44:42.083Z,5.00
2022-11-17T17:47:46.497Z,4.90
2022-11-17T17:50:50.919Z,4.90
2022-11-17T17:53:57.892Z,4.90
2022-11-17T17:57:02.132Z,4.80
2022-11-17T18:00:07.497Z,4.80
2022-11-17T18:03:11.852Z,4.80
2022-11-17T18:06:18.551Z,4.80
2022-11-17T18:09:23.047Z,4.90
2022-11-17T18:12:27.566Z,4.90
2022-11-17T18:15:32.389Z,4.90
2022-11-17T18:18:37.340Z,5.00
2022-11-17T18:21:41.803Z,5.00
2022-11-17T18:24:47.071Z,5.00
2022-11-17T18:27:51.796Z,5.00
2022-11-17T18:30:56.304Z,5.10
2022-11-17T18:34:12.986Z,5.10
2022-11-17T18:37:17.021Z,5.10
2022-11-17T18:40:21.732Z,5.20
2022-11-17T18:43:30.301Z,5.20
2022-11-17T18:46:34.926Z,5.20
2022-11-17T18:49:39.099Z,5.20
2022-11-17T18:52:43.501Z,5.20
2022-11-17T18:55:47.813Z,5.20
2022-11-17T18:58:52.449Z,5.20
2022-11-17T19:01:57.252Z,5.30
2022-11-17T19:05:01.547Z,5.20
2022-11-17T19:08:05.789Z,5.20
2022-11-17T19:11:11.651Z,5.30
2022-11-17T19:14:15.992Z,5.20
2022-11-17T19:17:20.532Z,5.20
2022-11-17T19:20:27.081Z,5.30
2022-11-17T19:23:35.678Z,5.30
2022-11-17T19:26:40.292Z,5.30
2022-11-17T19:29:44.652Z,5.40
2022-11-17T19:32:48.761Z,5.40
2022-11-17T19:35:53.430Z,5.50
2022-11-17T19:38:59.921Z,5.50
2022-11-17T19:42:04.471Z,5.50
2022-11-17T19:45:09.347Z,5.50
2022-11-17T19:48:13.732Z,5.50
2022-11-17T19:51:22.518Z,5.50
2022-11-17T19:54:26.635Z,5.40
2022-11-17T19:57:31.064Z,5.50
2022-11-17T20:00:35.657Z,5.40
2022-11-17T20:03:41.358Z,5.30
2022-11-17T20:06:45.334Z,5.30
2022-11-17T20:09:49.355Z,5.30
2022-11-17T20:12:53.633Z,5.40
2022-11-17T20:16:06.168Z,5.40
2022-11-17T20:19:13.923Z,5.30
2022-11-17T20:22:18.446Z,5.30
2022-11-17T20:25:22.682Z,5.30
2022-11-17T20:28:27.154Z,5.30
2022-11-17T20:31:34.051Z,5.40
2022-11-17T20:34:38.412Z,5.40
2022-11-17T20:37:42.555Z,5.40
2022-11-17T20:40:46.769Z,5.50
2022-11-17T20:43:55.520Z,5.40
2022-11-17T20:47:00.146Z,5.40
2022-11-17T20:50:05.288Z,5.40
2022-11-17T20:53:09.712Z,5.40
2022-11-17T20:56:16.101Z,5.30
2022-11-17T20:59:20.703Z,5.30
2022-11-17T21:02:25.158Z,5.40
2022-11-17T21:05:29.582Z,5.30
2022-11-17T21:08:35.541Z,5.40
2022-11-17T21:11:58.572Z,5.40
2022-11-17T21:15:02.679Z,5.50
2022-11-17T21:18:25.045Z,5.50
2022-11-17T21:21:30.683Z,5.60
2022-11-17T21:24:35.086Z,5.60
2022-11-17T21:27:39.370Z,5.60
2022-11-17T21:30:43.842Z,5.70
2022-11-17T21:33:55.431Z,5.70
2022-11-17T21:37:00.357Z,5.80
2022-11-17T21:40:05.437Z,5.70
2022-11-17T21:43:10.329Z,5.70
2022-11-17T21:46:17.814Z,5.60
2022-11-17T21:49:22.120Z,5.50
2022-11-17T21:52:26.417Z,5.40
2022-11-17T21:55:30.833Z,5.40
2022-11-17T21:58:35.477Z,5.30
2022-11-17T22:01:40.344Z,5.40
2022-11-17T22:04:44.843Z,5.40
2022-11-17T22:07:49.078Z,5.30
2022-11-17T22:10:53.212Z,5.30
2022-11-17T22:13:57.677Z,5.30
2022-11-17T22:17:01.783Z,5.30
2022-11-17T22:20:07.003Z,5.30
2022-11-17T22:23:11.062Z,5.30
2022-11-17T22:26:15.609Z,5.20
2022-11-17T22:29:21.396Z,5.20
2022-11-17T22:32:26.023Z,5.10
2022-11-17T22:35:31.206Z,5.10
2022-11-17T22:38:35.856Z,5.10
2022-11-17T22:41:40.184Z,5.00
2022-11-17T22:44:44.900Z,5.00
2022-11-17T22:47:49.133Z,4.90
2022-11-17T22:50:57.076Z,4.80
2022-11-17T22:54:01.525Z,4.70
2022-11-17T22:57:06.101Z,4.70
2022-11-17T23:00:11.304Z,4.60
2022-11-17T23:03:15.956Z,4.50
2022-11-17T23:06:20.357Z,4.50
2022-11-17T23:09:24.643Z,4.50
2022-11-17T23:12:28.965Z,4.50
2022-11-17T23:15:33.309Z,4.60
2022-11-17T23:18:38.077Z,4.50
2022-11-17T23:21:42.326Z,4.50
2022-11-17T23:24:46.879Z,4.40
2022-11-17T23:27:51.508Z,4.40
2022-11-17T23:31:03.434Z,4.40
2022-11-17T23:34:11.183Z,4.30
2022-11-17T23:37:15.577Z,4.30
2022-11-17T23:40:19.819Z,4.30
2022-11-17T23:43:24.200Z,4.20
2022-11-17T23:46:28.425Z,4.30
2022-11-17T23:49:32.703Z,4.30
2022-11-17T23:52:37.023Z,4.30
2022-11-17T23:55:41.576Z,4.40
2022-11-17T23:58:45.875Z,4.40
